WZZ001 LHBP-LIMC
Flight info
| Callsign | WZZ001 |
|---|---|
| Flight time | 1h 24m |
| Altitude | 38000 |
| Route | GILEP DCT ZOLKU DCT SUNIS DCT DETSA/N0444F370 DCT RENTA DCT ATPED DCT LUSIL DCT EVRIP |
| Aircraft | A21N/M-SDE1E2E3FGIJ1J4RWXY/LB1 |
Departure
| Time | 2026-02-17 13:16 |
|---|---|
| Airport | Budapest Liszt Ferenc International Airport (LHBP) |
Arrival
| Time | 2026-02-17 14:40 |
|---|---|
| Airport | Milan Malpensa International Airport (LIMC) |
| Time | Latitude | Longitude | Altitude | Speed | Heading |
|---|---|---|---|---|---|
| 2026-02-17 12:46 | 47.43429 | 19.25656 | 460 ft | 0 kts | 312° |
| 2026-02-17 13:07 | 47.43422 | 19.25666 | 460 ft | 3 kts | 306° |
| 2026-02-17 13:07 | 47.43414 | 19.25690 | 456 ft | 3 kts | 275° |
| 2026-02-17 13:07 | 47.43416 | 19.25717 | 456 ft | 3 kts | 242° |
| 2026-02-17 13:07 | 47.43427 | 19.25741 | 458 ft | 3 kts | 225° |
| 2026-02-17 13:08 | 47.43436 | 19.25753 | 459 ft | 0 kts | 222° |
| 2026-02-17 13:12 | 47.43429 | 19.25745 | 460 ft | 6 kts | 220° |
| 2026-02-17 13:12 | 47.43395 | 19.25700 | 460 ft | 14 kts | 223° |
| 2026-02-17 13:13 | 47.43320 | 19.25599 | 460 ft | 15 kts | 224° |
| 2026-02-17 13:13 | 47.43323 | 19.25463 | 459 ft | 15 kts | 306° |
| 2026-02-17 13:13 | 47.43298 | 19.25327 | 460 ft | 16 kts | 225° |
| 2026-02-17 13:13 | 47.43208 | 19.25205 | 460 ft | 19 kts | 224° |
| 2026-02-17 13:14 | 47.43164 | 19.25145 | 460 ft | 0 kts | 221° |
| 2026-02-17 13:15 | 47.43105 | 19.25034 | 460 ft | 18 kts | 253° |
| 2026-02-17 13:15 | 47.43146 | 19.24865 | 460 ft | 15 kts | 311° |
| 2026-02-17 13:15 | 47.43151 | 19.24855 | 460 ft | 2 kts | 311° |
| 2026-02-17 13:15 | 47.43287 | 19.24636 | 457 ft | 67 kts | 312° |
| 2026-02-17 13:16 | 47.43804 | 19.23795 | 458 ft | 152 kts | 311° |
| 2026-02-17 13:16 | 47.44641 | 19.22474 | 720 ft | 192 kts | 313° |
| 2026-02-17 13:16 | 47.45604 | 19.20961 | 1235 ft | 213 kts | 313° |
| 2026-02-17 13:16 | 47.46670 | 19.19240 | 1566 ft | 244 kts | 312° |
| 2026-02-17 13:17 | 47.47894 | 19.17162 | 1487 ft | 295 kts | 307° |
| 2026-02-17 13:17 | 47.48862 | 19.14242 | 1439 ft | 339 kts | 285° |
| 2026-02-17 13:17 | 47.49014 | 19.10825 | 2995 ft | 316 kts | 269° |
| 2026-02-17 13:17 | 47.48414 | 19.08008 | 4548 ft | 276 kts | 242° |
| 2026-02-17 13:18 | 47.47168 | 19.05911 | 4711 ft | 269 kts | 225° |
| 2026-02-17 13:18 | 47.45580 | 19.04396 | 4887 ft | 276 kts | 210° |
| 2026-02-17 13:18 | 47.43786 | 19.03308 | 5096 ft | 281 kts | 202° |
| 2026-02-17 13:19 | 47.39926 | 19.01830 | 6095 ft | 298 kts | 195° |
| 2026-02-17 13:19 | 47.37935 | 19.01066 | 7260 ft | 293 kts | 201° |
| 2026-02-17 13:19 | 47.36021 | 19.00075 | 8409 ft | 292 kts | 205° |
| 2026-02-17 13:19 | 47.34142 | 18.98900 | 9517 ft | 294 kts | 210° |
| 2026-02-17 13:20 | 47.32450 | 18.97183 | 10416 ft | 294 kts | 232° |
| 2026-02-17 13:20 | 47.31449 | 18.94536 | 10881 ft | 305 kts | 261° |
| 2026-02-17 13:20 | 47.31501 | 18.91421 | 11500 ft | 310 kts | 289° |
| 2026-02-17 13:20 | 47.32288 | 18.88486 | 12409 ft | 315 kts | 297° |
| 2026-02-17 13:21 | 47.33240 | 18.85545 | 13374 ft | 321 kts | 297° |
| 2026-02-17 13:21 | 47.34216 | 18.82559 | 14232 ft | 326 kts | 297° |
| 2026-02-17 13:21 | 47.35197 | 18.79516 | 15086 ft | 331 kts | 296° |
| 2026-02-17 13:21 | 47.36182 | 18.76417 | 15941 ft | 336 kts | 296° |
| 2026-02-17 13:22 | 47.37173 | 18.73273 | 16793 ft | 340 kts | 295° |
| 2026-02-17 13:22 | 47.38173 | 18.70084 | 17626 ft | 345 kts | 295° |
| 2026-02-17 13:22 | 47.39184 | 18.66849 | 18378 ft | 350 kts | 294° |
| 2026-02-17 13:23 | 47.41231 | 18.60222 | 19724 ft | 360 kts | 291° |
| 2026-02-17 13:23 | 47.42073 | 18.56736 | 20451 ft | 362 kts | 286° |
| 2026-02-17 13:23 | 47.42823 | 18.53150 | 21096 ft | 367 kts | 284° |
| 2026-02-17 13:23 | 47.43560 | 18.49523 | 21769 ft | 371 kts | 283° |
| 2026-02-17 13:24 | 47.44302 | 18.45853 | 22439 ft | 375 kts | 283° |
| 2026-02-17 13:24 | 47.45054 | 18.42142 | 23091 ft | 378 kts | 282° |
| 2026-02-17 13:24 | 47.45811 | 18.38402 | 23644 ft | 382 kts | 282° |
| 2026-02-17 13:24 | 47.46574 | 18.34631 | 24151 ft | 385 kts | 282° |
| 2026-02-17 13:25 | 47.47344 | 18.30826 | 24669 ft | 388 kts | 282° |
| 2026-02-17 13:25 | 47.48117 | 18.26994 | 25167 ft | 390 kts | 282° |
| 2026-02-17 13:25 | 47.48841 | 18.23116 | 25647 ft | 392 kts | 281° |
| 2026-02-17 13:25 | 47.49510 | 18.19205 | 26135 ft | 394 kts | 281° |
| 2026-02-17 13:26 | 47.50156 | 18.15250 | 26597 ft | 397 kts | 281° |
| 2026-02-17 13:26 | 47.50796 | 18.11269 | 27033 ft | 399 kts | 281° |
| 2026-02-17 13:26 | 47.51440 | 18.07254 | 27448 ft | 402 kts | 281° |
| 2026-02-17 13:27 | 47.52752 | 17.99142 | 28268 ft | 408 kts | 281° |
| 2026-02-17 13:27 | 47.53417 | 17.95051 | 28654 ft | 411 kts | 281° |
| 2026-02-17 13:27 | 47.54088 | 17.90930 | 29042 ft | 414 kts | 281° |
| 2026-02-17 13:27 | 47.54656 | 17.86756 | 29409 ft | 414 kts | 275° |
| 2026-02-17 13:28 | 47.54846 | 17.82503 | 29772 ft | 414 kts | 267° |
| 2026-02-17 13:28 | 47.54587 | 17.78304 | 30062 ft | 416 kts | 259° |
| 2026-02-17 13:28 | 47.53843 | 17.74152 | 30332 ft | 419 kts | 251° |
| 2026-02-17 13:28 | 47.52848 | 17.70101 | 30695 ft | 419 kts | 249° |
| 2026-02-17 13:29 | 47.51764 | 17.66099 | 31058 ft | 419 kts | 248° |
| 2026-02-17 13:29 | 47.50638 | 17.62123 | 31426 ft | 420 kts | 248° |
| 2026-02-17 13:29 | 47.49495 | 17.58145 | 31767 ft | 420 kts | 248° |
| 2026-02-17 13:29 | 47.48336 | 17.54106 | 32107 ft | 421 kts | 248° |
| 2026-02-17 13:30 | 47.47200 | 17.50119 | 32429 ft | 421 kts | 249° |
| 2026-02-17 13:30 | 47.46086 | 17.46183 | 32772 ft | 421 kts | 249° |
| 2026-02-17 13:30 | 47.44960 | 17.42190 | 33100 ft | 422 kts | 249° |
| 2026-02-17 13:31 | 47.42709 | 17.34183 | 33728 ft | 422 kts | 249° |
| 2026-02-17 13:31 | 47.41583 | 17.30182 | 33979 ft | 423 kts | 249° |
| 2026-02-17 13:31 | 47.40452 | 17.26173 | 34199 ft | 424 kts | 250° |
| 2026-02-17 13:31 | 47.39317 | 17.22154 | 34426 ft | 424 kts | 250° |
| 2026-02-17 13:32 | 47.38180 | 17.18139 | 34677 ft | 424 kts | 250° |
| 2026-02-17 13:32 | 47.37042 | 17.14130 | 34929 ft | 424 kts | 250° |
| 2026-02-17 13:32 | 47.35904 | 17.10128 | 35152 ft | 423 kts | 250° |
| 2026-02-17 13:32 | 47.34763 | 17.06121 | 35368 ft | 424 kts | 250° |
| 2026-02-17 13:33 | 47.33620 | 17.02111 | 35590 ft | 424 kts | 250° |
| 2026-02-17 13:33 | 47.32478 | 16.98112 | 35800 ft | 424 kts | 250° |
| 2026-02-17 13:33 | 47.31333 | 16.94109 | 36025 ft | 424 kts | 250° |
| 2026-02-17 13:33 | 47.30186 | 16.90108 | 36229 ft | 424 kts | 250° |
| 2026-02-17 13:34 | 47.29037 | 16.86106 | 36420 ft | 424 kts | 250° |
| 2026-02-17 13:34 | 47.27891 | 16.82120 | 36744 ft | 421 kts | 250° |
| 2026-02-17 13:34 | 47.26752 | 16.78171 | 37098 ft | 417 kts | 250° |
| 2026-02-17 13:35 | 47.24498 | 16.70373 | 37551 ft | 415 kts | 251° |
| 2026-02-17 13:35 | 47.22228 | 16.62518 | 37671 ft | 420 kts | 251° |
| 2026-02-17 13:36 | 47.19922 | 16.54570 | 37757 ft | 425 kts | 251° |
| 2026-02-17 13:36 | 47.17592 | 16.46578 | 37755 ft | 425 kts | 251° |
| 2026-02-17 13:37 | 47.15277 | 16.38596 | 37754 ft | 424 kts | 254° |
| 2026-02-17 13:37 | 47.13926 | 16.30290 | 37750 ft | 416 kts | 265° |
| 2026-02-17 13:38 | 47.13261 | 16.21848 | 37748 ft | 416 kts | 268° |
| 2026-02-17 13:38 | 47.12724 | 16.13399 | 37749 ft | 416 kts | 268° |
| 2026-02-17 13:39 | 47.11908 | 16.00775 | 37749 ft | 416 kts | 268° |
| 2026-02-17 13:39 | 47.11332 | 15.92301 | 37746 ft | 420 kts | 268° |
| 2026-02-17 13:40 | 47.10735 | 15.83685 | 37747 ft | 428 kts | 268° |
| 2026-02-17 13:40 | 47.10119 | 15.74908 | 37749 ft | 436 kts | 268° |
| 2026-02-17 13:41 | 47.09485 | 15.65974 | 37747 ft | 444 kts | 268° |
| 2026-02-17 13:41 | 47.08834 | 15.56924 | 38092 ft | 442 kts | 268° |
| 2026-02-17 13:42 | 47.08191 | 15.47928 | 37930 ft | 448 kts | 268° |
| 2026-02-17 13:42 | 47.07864 | 15.43443 | 37749 ft | 434 kts | 268° |
| 2026-02-17 13:43 | 47.07218 | 15.34938 | 37742 ft | 412 kts | 268° |
| 2026-02-17 13:43 | 47.06592 | 15.26562 | 37742 ft | 414 kts | 268° |
| 2026-02-17 13:44 | 47.05964 | 15.18168 | 37741 ft | 414 kts | 268° |
| 2026-02-17 13:44 | 47.05328 | 15.09775 | 37739 ft | 414 kts | 268° |
| 2026-02-17 13:45 | 47.04683 | 15.01379 | 37741 ft | 414 kts | 268° |
| 2026-02-17 13:45 | 47.04033 | 14.92985 | 37707 ft | 414 kts | 268° |
| 2026-02-17 13:46 | 47.03375 | 14.84586 | 37738 ft | 414 kts | 268° |
| 2026-02-17 13:46 | 47.02713 | 14.76201 | 37740 ft | 414 kts | 268° |
| 2026-02-17 13:47 | 47.01707 | 14.63620 | 37728 ft | 414 kts | 268° |
| 2026-02-17 13:47 | 47.01030 | 14.55242 | 37748 ft | 415 kts | 268° |
| 2026-02-17 13:48 | 47.00345 | 14.46853 | 37752 ft | 413 kts | 269° |
| 2026-02-17 13:48 | 46.99659 | 14.38589 | 37762 ft | 406 kts | 269° |
| 2026-02-17 13:49 | 46.98978 | 14.30393 | 37770 ft | 405 kts | 269° |
| 2026-02-17 13:49 | 46.98294 | 14.22207 | 37768 ft | 405 kts | 269° |
| 2026-02-17 13:50 | 46.97610 | 14.14090 | 37773 ft | 405 kts | 269° |
| 2026-02-17 13:51 | 46.96561 | 14.01827 | 37772 ft | 405 kts | 269° |
| 2026-02-17 13:51 | 46.95855 | 13.93662 | 37782 ft | 404 kts | 269° |
| 2026-02-17 13:52 | 46.95144 | 13.85507 | 37773 ft | 403 kts | 270° |
| 2026-02-17 13:52 | 46.94431 | 13.77383 | 37785 ft | 401 kts | 270° |
| 2026-02-17 13:53 | 46.93716 | 13.69293 | 37786 ft | 401 kts | 270° |
| 2026-02-17 13:53 | 46.92992 | 13.61224 | 37790 ft | 400 kts | 270° |
| 2026-02-17 13:54 | 46.92263 | 13.53100 | 37792 ft | 407 kts | 269° |
| 2026-02-17 13:54 | 46.91517 | 13.44829 | 37794 ft | 411 kts | 269° |
| 2026-02-17 13:55 | 46.90372 | 13.32400 | 37816 ft | 411 kts | 269° |
| 2026-02-17 13:55 | 46.89602 | 13.24113 | 37811 ft | 412 kts | 269° |
| 2026-02-17 13:56 | 46.88827 | 13.15819 | 37784 ft | 411 kts | 269° |
| 2026-02-17 13:56 | 46.88047 | 13.07524 | 37811 ft | 413 kts | 269° |
| 2026-02-17 13:57 | 46.87258 | 12.99216 | 37810 ft | 413 kts | 268° |
| 2026-02-17 13:57 | 46.86462 | 12.90902 | 37815 ft | 413 kts | 268° |
| 2026-02-17 13:58 | 46.85660 | 12.82597 | 37811 ft | 412 kts | 269° |
| 2026-02-17 13:59 | 46.84444 | 12.70041 | 37814 ft | 421 kts | 269° |
| 2026-02-17 13:59 | 46.83608 | 12.61497 | 37794 ft | 428 kts | 269° |
| 2026-02-17 14:00 | 46.82751 | 12.52893 | 37795 ft | 428 kts | 268° |
| 2026-02-17 14:00 | 46.82034 | 12.45743 | 37806 ft | 428 kts | 269° |
| 2026-02-17 14:01 | 46.81172 | 12.37166 | 37801 ft | 427 kts | 269° |
| 2026-02-17 14:01 | 46.80112 | 12.28652 | 37419 ft | 426 kts | 259° |
| 2026-02-17 14:01 | 46.79006 | 12.24654 | 37155 ft | 423 kts | 256° |
| 2026-02-17 14:02 | 46.77778 | 12.20754 | 36897 ft | 422 kts | 254° |
| 2026-02-17 14:02 | 46.76497 | 12.16923 | 36638 ft | 424 kts | 254° |
| 2026-02-17 14:02 | 46.75168 | 12.13064 | 36390 ft | 424 kts | 253° |
| 2026-02-17 14:03 | 46.72487 | 12.05382 | 35689 ft | 425 kts | 254° |
| 2026-02-17 14:03 | 46.71147 | 12.01538 | 35311 ft | 425 kts | 255° |
| 2026-02-17 14:03 | 46.69811 | 11.97699 | 34937 ft | 425 kts | 255° |
| 2026-02-17 14:03 | 46.68477 | 11.93857 | 34552 ft | 425 kts | 255° |
| 2026-02-17 14:04 | 46.67144 | 11.90014 | 34154 ft | 425 kts | 256° |
| 2026-02-17 14:04 | 46.65811 | 11.86176 | 33678 ft | 425 kts | 256° |
| 2026-02-17 14:04 | 46.64481 | 11.82331 | 33135 ft | 425 kts | 256° |
| 2026-02-17 14:04 | 46.63151 | 11.78497 | 32613 ft | 423 kts | 257° |
| 2026-02-17 14:05 | 46.61844 | 11.74742 | 32110 ft | 419 kts | 257° |
| 2026-02-17 14:05 | 46.60532 | 11.70993 | 31585 ft | 413 kts | 257° |
| 2026-02-17 14:05 | 46.59238 | 11.67300 | 31082 ft | 407 kts | 258° |
| 2026-02-17 14:05 | 46.57962 | 11.63673 | 30560 ft | 400 kts | 259° |
| 2026-02-17 14:06 | 46.56702 | 11.60090 | 30100 ft | 396 kts | 259° |
| 2026-02-17 14:06 | 46.55454 | 11.56538 | 29540 ft | 393 kts | 259° |
| 2026-02-17 14:06 | 46.54222 | 11.53031 | 28976 ft | 387 kts | 259° |
| 2026-02-17 14:07 | 46.51804 | 11.46144 | 28229 ft | 379 kts | 258° |
| 2026-02-17 14:07 | 46.50613 | 11.42745 | 27948 ft | 378 kts | 258° |
| 2026-02-17 14:07 | 46.49427 | 11.39356 | 27678 ft | 376 kts | 259° |
| 2026-02-17 14:07 | 46.48242 | 11.35982 | 27433 ft | 374 kts | 258° |
| 2026-02-17 14:08 | 46.47057 | 11.32618 | 27114 ft | 374 kts | 259° |
| 2026-02-17 14:08 | 46.45876 | 11.29275 | 26836 ft | 372 kts | 259° |
| 2026-02-17 14:08 | 46.44697 | 11.25950 | 26589 ft | 370 kts | 259° |
| 2026-02-17 14:08 | 46.43523 | 11.22643 | 26273 ft | 368 kts | 258° |
| 2026-02-17 14:09 | 46.42352 | 11.19346 | 25992 ft | 367 kts | 258° |
| 2026-02-17 14:09 | 46.41185 | 11.16060 | 25711 ft | 366 kts | 258° |
| 2026-02-17 14:09 | 46.40019 | 11.12777 | 25475 ft | 366 kts | 258° |
| 2026-02-17 14:09 | 46.38855 | 11.09507 | 25237 ft | 365 kts | 258° |
| 2026-02-17 14:10 | 46.37689 | 11.06244 | 24982 ft | 364 kts | 257° |
| 2026-02-17 14:10 | 46.36524 | 11.02993 | 24740 ft | 363 kts | 257° |
| 2026-02-17 14:10 | 46.35363 | 10.99756 | 24485 ft | 362 kts | 257° |
| 2026-02-17 14:11 | 46.33048 | 10.93310 | 24017 ft | 360 kts | 256° |
| 2026-02-17 14:11 | 46.31895 | 10.90103 | 23781 ft | 359 kts | 256° |
| 2026-02-17 14:11 | 46.30749 | 10.86907 | 23531 ft | 357 kts | 256° |
| 2026-02-17 14:11 | 46.29625 | 10.83724 | 23296 ft | 354 kts | 257° |
| 2026-02-17 14:12 | 46.28521 | 10.80568 | 23010 ft | 349 kts | 257° |
| 2026-02-17 14:12 | 46.27437 | 10.77446 | 22719 ft | 347 kts | 257° |
| 2026-02-17 14:12 | 46.26361 | 10.74330 | 22436 ft | 346 kts | 257° |
| 2026-02-17 14:12 | 46.25283 | 10.71217 | 22166 ft | 345 kts | 256° |
| 2026-02-17 14:13 | 46.24210 | 10.68128 | 21865 ft | 345 kts | 256° |
| 2026-02-17 14:13 | 46.23136 | 10.65026 | 21648 ft | 343 kts | 256° |
| 2026-02-17 14:13 | 46.22068 | 10.61947 | 21701 ft | 343 kts | 256° |
| 2026-02-17 14:13 | 46.20996 | 10.58875 | 21737 ft | 344 kts | 256° |
| 2026-02-17 14:14 | 46.19910 | 10.55768 | 21778 ft | 348 kts | 256° |
| 2026-02-17 14:14 | 46.18816 | 10.52649 | 21782 ft | 350 kts | 256° |
| 2026-02-17 14:14 | 46.17712 | 10.49515 | 21763 ft | 351 kts | 256° |
| 2026-02-17 14:15 | 46.15507 | 10.43238 | 21725 ft | 350 kts | 256° |
| 2026-02-17 14:15 | 46.14410 | 10.40097 | 21789 ft | 351 kts | 256° |
| 2026-02-17 14:15 | 46.13300 | 10.36971 | 21775 ft | 349 kts | 256° |
| 2026-02-17 14:15 | 46.12192 | 10.33865 | 21767 ft | 348 kts | 256° |
| 2026-02-17 14:16 | 46.11088 | 10.30758 | 21759 ft | 348 kts | 256° |
| 2026-02-17 14:16 | 46.09990 | 10.27654 | 21738 ft | 347 kts | 256° |
| 2026-02-17 14:16 | 46.08895 | 10.24566 | 21767 ft | 346 kts | 256° |
| 2026-02-17 14:16 | 46.07802 | 10.21483 | 21767 ft | 345 kts | 257° |
| 2026-02-17 14:17 | 46.06712 | 10.18409 | 21747 ft | 344 kts | 257° |
| 2026-02-17 14:17 | 46.05624 | 10.15336 | 21774 ft | 345 kts | 257° |
| 2026-02-17 14:17 | 46.04539 | 10.12259 | 21762 ft | 344 kts | 257° |
| 2026-02-17 14:17 | 46.03481 | 10.09170 | 21776 ft | 344 kts | 258° |
| 2026-02-17 14:18 | 46.02437 | 10.06077 | 21764 ft | 344 kts | 258° |
| 2026-02-17 14:18 | 46.01394 | 10.02987 | 21638 ft | 343 kts | 257° |
| 2026-02-17 14:18 | 46.00368 | 9.99952 | 21241 ft | 341 kts | 257° |
| 2026-02-17 14:19 | 45.98300 | 9.93814 | 20526 ft | 341 kts | 256° |
| 2026-02-17 14:19 | 45.97253 | 9.90710 | 20133 ft | 340 kts | 257° |
| 2026-02-17 14:19 | 45.96223 | 9.87662 | 19775 ft | 337 kts | 256° |
| 2026-02-17 14:19 | 45.95204 | 9.84653 | 19415 ft | 334 kts | 256° |
| 2026-02-17 14:20 | 45.94202 | 9.81690 | 19065 ft | 334 kts | 256° |
| 2026-02-17 14:20 | 45.93173 | 9.78642 | 18701 ft | 335 kts | 255° |
| 2026-02-17 14:20 | 45.92172 | 9.75686 | 18345 ft | 335 kts | 255° |
| 2026-02-17 14:20 | 45.91159 | 9.72671 | 17992 ft | 335 kts | 254° |
| 2026-02-17 14:21 | 45.90137 | 9.69673 | 17615 ft | 334 kts | 253° |
| 2026-02-17 14:21 | 45.89114 | 9.66693 | 17226 ft | 332 kts | 253° |
| 2026-02-17 14:21 | 45.88099 | 9.63729 | 16901 ft | 330 kts | 253° |
| 2026-02-17 14:21 | 45.87094 | 9.60788 | 16551 ft | 328 kts | 253° |
| 2026-02-17 14:22 | 45.86088 | 9.57844 | 16203 ft | 327 kts | 253° |
| 2026-02-17 14:22 | 45.84087 | 9.51996 | 15507 ft | 326 kts | 252° |
| 2026-02-17 14:23 | 45.82097 | 9.46225 | 14816 ft | 320 kts | 252° |
| 2026-02-17 14:23 | 45.81114 | 9.43370 | 14479 ft | 317 kts | 252° |
| 2026-02-17 14:23 | 45.80138 | 9.40544 | 14174 ft | 315 kts | 252° |
| 2026-02-17 14:23 | 45.79171 | 9.37733 | 14074 ft | 314 kts | 252° |
| 2026-02-17 14:24 | 45.78210 | 9.34937 | 13723 ft | 313 kts | 251° |
| 2026-02-17 14:24 | 45.77242 | 9.32133 | 13364 ft | 313 kts | 251° |
| 2026-02-17 14:24 | 45.76280 | 9.29351 | 13054 ft | 312 kts | 251° |
| 2026-02-17 14:24 | 45.75318 | 9.26571 | 12739 ft | 310 kts | 251° |
| 2026-02-17 14:25 | 45.74364 | 9.23819 | 12420 ft | 309 kts | 250° |
| 2026-02-17 14:25 | 45.73411 | 9.21068 | 12112 ft | 308 kts | 250° |
| 2026-02-17 14:25 | 45.72460 | 9.18330 | 11805 ft | 306 kts | 250° |
| 2026-02-17 14:25 | 45.71515 | 9.15611 | 11494 ft | 304 kts | 250° |
| 2026-02-17 14:26 | 45.70575 | 9.12905 | 11192 ft | 303 kts | 250° |
| 2026-02-17 14:26 | 45.69637 | 9.10208 | 10925 ft | 302 kts | 250° |
| 2026-02-17 14:26 | 45.68701 | 9.07522 | 10860 ft | 302 kts | 250° |
| 2026-02-17 14:27 | 45.66829 | 9.02153 | 10842 ft | 302 kts | 249° |
| 2026-02-17 14:27 | 45.65862 | 8.99469 | 10380 ft | 307 kts | 244° |
| 2026-02-17 14:27 | 45.64556 | 8.97025 | 9710 ft | 313 kts | 227° |
| 2026-02-17 14:27 | 45.62765 | 8.95275 | 9170 ft | 313 kts | 206° |
| 2026-02-17 14:28 | 45.60652 | 8.94578 | 8671 ft | 311 kts | 186° |
| 2026-02-17 14:28 | 45.58516 | 8.94420 | 8190 ft | 305 kts | 183° |
| 2026-02-17 14:28 | 45.56406 | 8.94360 | 7626 ft | 302 kts | 182° |
| 2026-02-17 14:28 | 45.54312 | 8.94315 | 7078 ft | 299 kts | 182° |
| 2026-02-17 14:29 | 45.52246 | 8.94269 | 6538 ft | 296 kts | 182° |
| 2026-02-17 14:29 | 45.50202 | 8.94220 | 5997 ft | 293 kts | 182° |
| 2026-02-17 14:29 | 45.48173 | 8.94170 | 5690 ft | 291 kts | 182° |
| 2026-02-17 14:29 | 45.46141 | 8.94117 | 5657 ft | 293 kts | 182° |
| 2026-02-17 14:30 | 45.44101 | 8.94062 | 5457 ft | 293 kts | 182° |
| 2026-02-17 14:30 | 45.42070 | 8.94010 | 5113 ft | 292 kts | 184° |
| 2026-02-17 14:31 | 45.35937 | 8.94055 | 4384 ft | 294 kts | 182° |
| 2026-02-17 14:31 | 45.33890 | 8.94066 | 4227 ft | 293 kts | 182° |
| 2026-02-17 14:31 | 45.31865 | 8.93964 | 4061 ft | 288 kts | 194° |
| 2026-02-17 14:31 | 45.30120 | 8.92895 | 3932 ft | 263 kts | 221° |
| 2026-02-17 14:32 | 45.29054 | 8.90979 | 3911 ft | 237 kts | 251° |
| 2026-02-17 14:32 | 45.28865 | 8.88797 | 3905 ft | 218 kts | 282° |
| 2026-02-17 14:32 | 45.29463 | 8.86849 | 3915 ft | 217 kts | 301° |
| 2026-02-17 14:32 | 45.30407 | 8.85168 | 3905 ft | 218 kts | 317° |
| 2026-02-17 14:33 | 45.31664 | 8.84043 | 3898 ft | 211 kts | 334° |
| 2026-02-17 14:33 | 45.34305 | 8.82700 | 3905 ft | 194 kts | 339° |
| 2026-02-17 14:33 | 45.35597 | 8.82123 | 3895 ft | 194 kts | 340° |
| 2026-02-17 14:34 | 45.36870 | 8.81566 | 3898 ft | 195 kts | 340° |
| 2026-02-17 14:34 | 45.38165 | 8.81003 | 3897 ft | 194 kts | 340° |
| 2026-02-17 14:34 | 45.39455 | 8.80445 | 3892 ft | 192 kts | 340° |
| 2026-02-17 14:35 | 45.41856 | 8.79458 | 3902 ft | 171 kts | 341° |
| 2026-02-17 14:35 | 45.43016 | 8.79009 | 3901 ft | 170 kts | 340° |
| 2026-02-17 14:35 | 45.44149 | 8.78588 | 3993 ft | 172 kts | 346° |
| 2026-02-17 14:35 | 45.45331 | 8.78239 | 3988 ft | 175 kts | 347° |
| 2026-02-17 14:36 | 45.46523 | 8.77904 | 3825 ft | 175 kts | 347° |
| 2026-02-17 14:36 | 45.47716 | 8.77569 | 3566 ft | 175 kts | 348° |
| 2026-02-17 14:36 | 45.48904 | 8.77241 | 3326 ft | 173 kts | 348° |
| 2026-02-17 14:36 | 45.50084 | 8.76917 | 3071 ft | 173 kts | 349° |
| 2026-02-17 14:37 | 45.51260 | 8.76593 | 2833 ft | 171 kts | 349° |
| 2026-02-17 14:37 | 45.52429 | 8.76271 | 2590 ft | 171 kts | 349° |
| 2026-02-17 14:37 | 45.53586 | 8.75952 | 2374 ft | 169 kts | 349° |
| 2026-02-17 14:37 | 45.54742 | 8.75633 | 2141 ft | 170 kts | 349° |
| 2026-02-17 14:38 | 45.55904 | 8.75313 | 1905 ft | 169 kts | 349° |
| 2026-02-17 14:38 | 45.57009 | 8.75008 | 1677 ft | 154 kts | 349° |
| 2026-02-17 14:38 | 45.58038 | 8.74724 | 1456 ft | 149 kts | 349° |
| 2026-02-17 14:39 | 45.59943 | 8.74198 | 1074 ft | 130 kts | 348° |
| 2026-02-17 14:39 | 45.60816 | 8.73957 | 908 ft | 127 kts | 349° |
| 2026-02-17 14:39 | 45.61685 | 8.73717 | 754 ft | 126 kts | 349° |
| 2026-02-17 14:39 | 45.62526 | 8.73486 | 730 ft | 116 kts | 349° |
| 2026-02-17 14:40 | 45.63115 | 8.73326 | 737 ft | 67 kts | 348° |
| 2026-02-17 14:40 | 45.63536 | 8.73205 | 750 ft | 50 kts | 343° |
| 2026-02-17 14:40 | 45.63860 | 8.72821 | 756 ft | 0 kts | 303° |
| 2026-02-17 14:42 | 45.63868 | 8.72806 | 753 ft | 8 kts | 304° |
| 2026-02-17 14:42 | 45.63914 | 8.72711 | 758 ft | 12 kts | 306° |
| 2026-02-17 14:43 | 45.63944 | 8.72439 | 759 ft | 15 kts | 257° |
| 2026-02-17 14:43 | 45.63927 | 8.72311 | 761 ft | 0 kts | 258° |
| 2026-02-17 14:44 | 45.63922 | 8.72273 | 756 ft | 22 kts | 259° |
| 2026-02-17 14:44 | 45.63909 | 8.71991 | 753 ft | 29 kts | 263° |
| 2026-02-17 14:44 | 45.63819 | 8.71827 | 756 ft | 23 kts | 183° |
| 2026-02-17 14:44 | 45.63671 | 8.71863 | 754 ft | 19 kts | 167° |
| 2026-02-17 14:45 | 45.63541 | 8.71893 | 754 ft | 12 kts | 169° |
| 2026-02-17 14:45 | 45.63507 | 8.71902 | 751 ft | 0 kts | 169° |
| 2026-02-17 14:45 | 45.63480 | 8.71910 | 753 ft | 18 kts | 169° |
| 2026-02-17 14:46 | 45.63294 | 8.71964 | 748 ft | 29 kts | 169° |
| 2026-02-17 14:46 | 45.63192 | 8.71991 | 747 ft | 22 kts | 169° |
| 2026-02-17 14:46 | 45.63033 | 8.72036 | 743 ft | 24 kts | 168° |
| 2026-02-17 14:47 | 45.62700 | 8.72130 | 739 ft | 18 kts | 171° |
| 2026-02-17 14:47 | 45.62569 | 8.72167 | 736 ft | 21 kts | 170° |
| 2026-02-17 14:47 | 45.62470 | 8.72191 | 733 ft | 22 kts | 169° |
| 2026-02-17 14:47 | 45.62368 | 8.72134 | 733 ft | 17 kts | 253° |
| 2026-02-17 14:48 | 45.62342 | 8.71952 | 733 ft | 20 kts | 261° |
| 2026-02-17 14:48 | 45.62318 | 8.71762 | 732 ft | 14 kts | 259° |
| 2026-02-17 14:48 | 45.62317 | 8.71752 | 732 ft | 0 kts | 259° |
| 2026-02-17 14:49 | 45.62316 | 8.71745 | 732 ft | 5 kts | 259° |
| 2026-02-17 14:49 | 45.62317 | 8.71685 | 732 ft | 6 kts | 300° |
| 2026-02-17 14:49 | 45.62351 | 8.71670 | 733 ft | 5 kts | 8° |
| 2026-02-17 14:49 | 45.62375 | 8.71678 | 734 ft | 1 kts | 16° |
| 2026-02-17 14:50 | 45.62379 | 8.71680 | 734 ft | 0 kts | 17° |